sensor_id;sensor_type;location;lat;lon;timestamp;P1;durP1;ratioP1;P2;durP2;ratioP2
16115;SDS011;8162;47.104;15.432;2023-04-24T00:00:58;39.33;;;17.30;;
16115;SDS011;8162;47.104;15.432;2023-04-24T00:04:01;34.87;;;16.07;;
16115;SDS011;8162;47.104;15.432;2023-04-24T00:07:03;30.70;;;15.57;;
16115;SDS011;8162;47.104;15.432;2023-04-24T00:10:06;34.10;;;16.67;;
16115;SDS011;8162;47.104;15.432;2023-04-24T00:13:08;30.83;;;15.10;;
16115;SDS011;8162;47.104;15.432;2023-04-24T00:16:09;38.07;;;16.53;;
16115;SDS011;8162;47.104;15.432;2023-04-24T00:19:10;35.57;;;15.43;;
16115;SDS011;8162;47.104;15.432;2023-04-24T00:22:12;39.33;;;16.77;;
16115;SDS011;8162;47.104;15.432;2023-04-24T00:25:14;35.33;;;15.50;;
16115;SDS011;8162;47.104;15.432;2023-04-24T00:28:15;32.60;;;15.67;;
16115;SDS011;8162;47.104;15.432;2023-04-24T00:31:16;31.67;;;16.23;;
16115;SDS011;8162;47.104;15.432;2023-04-24T00:34:17;32.97;;;14.90;;
16115;SDS011;8162;47.104;15.432;2023-04-24T00:37:18;32.93;;;15.03;;
16115;SDS011;8162;47.104;15.432;2023-04-24T00:40:19;28.37;;;15.13;;
16115;SDS011;8162;47.104;15.432;2023-04-24T00:43:20;39.03;;;15.23;;
16115;SDS011;8162;47.104;15.432;2023-04-24T00:46:21;37.30;;;16.63;;
16115;SDS011;8162;47.104;15.432;2023-04-24T00:49:22;36.07;;;16.80;;
16115;SDS011;8162;47.104;15.432;2023-04-24T00:52:23;36.67;;;17.37;;
16115;SDS011;8162;47.104;15.432;2023-04-24T00:55:25;35.33;;;15.30;;
16115;SDS011;8162;47.104;15.432;2023-04-24T00:58:26;34.43;;;16.70;;
16115;SDS011;8162;47.104;15.432;2023-04-24T01:01:27;41.30;;;16.17;;
16115;SDS011;8162;47.104;15.432;2023-04-24T01:04:28;43.50;;;18.80;;
16115;SDS011;8162;47.104;15.432;2023-04-24T01:07:29;49.77;;;18.83;;
16115;SDS011;8162;47.104;15.432;2023-04-24T01:10:31;44.23;;;19.87;;
16115;SDS011;8162;47.104;15.432;2023-04-24T01:13:33;43.90;;;18.97;;
16115;SDS011;8162;47.104;15.432;2023-04-24T01:16:35;37.00;;;16.30;;
16115;SDS011;8162;47.104;15.432;2023-04-24T01:19:38;37.13;;;16.73;;
16115;SDS011;8162;47.104;15.432;2023-04-24T01:22:39;41.57;;;19.07;;
16115;SDS011;8162;47.104;15.432;2023-04-24T01:25:41;41.40;;;17.60;;
16115;SDS011;8162;47.104;15.432;2023-04-24T01:28:42;38.60;;;17.70;;
16115;SDS011;8162;47.104;15.432;2023-04-24T01:31:43;39.93;;;17.93;;
16115;SDS011;8162;47.104;15.432;2023-04-24T01:34:44;35.07;;;18.03;;
16115;SDS011;8162;47.104;15.432;2023-04-24T01:37:46;46.17;;;18.73;;
16115;SDS011;8162;47.104;15.432;2023-04-24T01:40:47;41.77;;;17.80;;
16115;SDS011;8162;47.104;15.432;2023-04-24T01:43:48;44.40;;;18.53;;
16115;SDS011;8162;47.104;15.432;2023-04-24T01:46:50;43.40;;;18.33;;
16115;SDS011;8162;47.104;15.432;2023-04-24T01:49:51;43.40;;;18.67;;
16115;SDS011;8162;47.104;15.432;2023-04-24T01:52:52;45.97;;;17.63;;
16115;SDS011;8162;47.104;15.432;2023-04-24T01:55:53;43.73;;;17.47;;
16115;SDS011;8162;47.104;15.432;2023-04-24T01:58:54;37.47;;;17.90;;
16115;SDS011;8162;47.104;15.432;2023-04-24T02:01:55;43.73;;;19.73;;
16115;SDS011;8162;47.104;15.432;2023-04-24T02:04:56;46.10;;;18.03;;
16115;SDS011;8162;47.104;15.432;2023-04-24T02:07:57;31.70;;;14.13;;
16115;SDS011;8162;47.104;15.432;2023-04-24T02:10:58;39.23;;;17.40;;
16115;SDS011;8162;47.104;15.432;2023-04-24T02:14:01;40.50;;;16.97;;
16115;SDS011;8162;47.104;15.432;2023-04-24T02:17:02;35.40;;;15.63;;
16115;SDS011;8162;47.104;15.432;2023-04-24T02:20:05;34.73;;;16.40;;
16115;SDS011;8162;47.104;15.432;2023-04-24T02:23:06;39.77;;;16.53;;
16115;SDS011;8162;47.104;15.432;2023-04-24T02:26:08;32.67;;;15.33;;
16115;SDS011;8162;47.104;15.432;2023-04-24T02:29:09;31.73;;;16.60;;
16115;SDS011;8162;47.104;15.432;2023-04-24T02:32:10;35.00;;;16.87;;
16115;SDS011;8162;47.104;15.432;2023-04-24T02:35:12;41.57;;;17.83;;
16115;SDS011;8162;47.104;15.432;2023-04-24T02:38:13;46.63;;;18.43;;
16115;SDS011;8162;47.104;15.432;2023-04-24T02:41:14;45.00;;;16.67;;
16115;SDS011;8162;47.104;15.432;2023-04-24T02:44:15;37.87;;;16.37;;
16115;SDS011;8162;47.104;15.432;2023-04-24T02:47:17;38.30;;;17.03;;
16115;SDS011;8162;47.104;15.432;2023-04-24T02:50:18;33.27;;;16.03;;
16115;SDS011;8162;47.104;15.432;2023-04-24T02:53:19;34.37;;;15.90;;
16115;SDS011;8162;47.104;15.432;2023-04-24T02:56:20;31.60;;;15.57;;
16115;SDS011;8162;47.104;15.432;2023-04-24T02:59:21;42.53;;;17.47;;
16115;SDS011;8162;47.104;15.432;2023-04-24T03:02:22;45.70;;;18.03;;
16115;SDS011;8162;47.104;15.432;2023-04-24T03:05:23;41.37;;;16.93;;
16115;SDS011;8162;47.104;15.432;2023-04-24T03:08:24;47.67;;;17.87;;
16115;SDS011;8162;47.104;15.432;2023-04-24T03:11:25;41.97;;;18.20;;
16115;SDS011;8162;47.104;15.432;2023-04-24T03:14:26;48.47;;;19.30;;
16115;SDS011;8162;47.104;15.432;2023-04-24T03:17:27;52.80;;;21.43;;
16115;SDS011;8162;47.104;15.432;2023-04-24T03:20:28;38.20;;;17.17;;
16115;SDS011;8162;47.104;15.432;2023-04-24T03:23:30;47.77;;;19.37;;
16115;SDS011;8162;47.104;15.432;2023-04-24T03:26:31;69.57;;;23.07;;
16115;SDS011;8162;47.104;15.432;2023-04-24T03:29:32;42.50;;;19.30;;
16115;SDS011;8162;47.104;15.432;2023-04-24T03:32:33;67.70;;;22.23;;
16115;SDS011;8162;47.104;15.432;2023-04-24T03:35:34;58.40;;;23.27;;
16115;SDS011;8162;47.104;15.432;2023-04-24T03:38:36;44.70;;;20.47;;
16115;SDS011;8162;47.104;15.432;2023-04-24T03:41:37;58.40;;;20.87;;
16115;SDS011;8162;47.104;15.432;2023-04-24T03:44:38;57.00;;;19.80;;
16115;SDS011;8162;47.104;15.432;2023-04-24T03:47:39;71.03;;;22.33;;
16115;SDS011;8162;47.104;15.432;2023-04-24T03:50:40;57.73;;;20.53;;
16115;SDS011;8162;47.104;15.432;2023-04-24T03:53:41;68.33;;;22.77;;
16115;SDS011;8162;47.104;15.432;2023-04-24T03:56:42;59.53;;;21.57;;
16115;SDS011;8162;47.104;15.432;2023-04-24T03:59:43;60.73;;;22.47;;
16115;SDS011;8162;47.104;15.432;2023-04-24T04:02:44;40.80;;;18.67;;
16115;SDS011;8162;47.104;15.432;2023-04-24T04:05:45;66.37;;;23.40;;
16115;SDS011;8162;47.104;15.432;2023-04-24T04:08:46;84.13;;;25.33;;
16115;SDS011;8162;47.104;15.432;2023-04-24T04:11:47;79.60;;;25.37;;
16115;SDS011;8162;47.104;15.432;2023-04-24T04:14:48;77.87;;;25.33;;
16115;SDS011;8162;47.104;15.432;2023-04-24T04:17:49;63.80;;;20.60;;
16115;SDS011;8162;47.104;15.432;2023-04-24T04:20:50;54.63;;;20.87;;
16115;SDS011;8162;47.104;15.432;2023-04-24T04:23:51;68.20;;;23.70;;
16115;SDS011;8162;47.104;15.432;2023-04-24T04:26:52;62.67;;;22.83;;
16115;SDS011;8162;47.104;15.432;2023-04-24T04:29:58;68.20;;;21.73;;
16115;SDS011;8162;47.104;15.432;2023-04-24T04:33:04;60.17;;;21.90;;
16115;SDS011;8162;47.104;15.432;2023-04-24T04:36:05;62.03;;;23.10;;
16115;SDS011;8162;47.104;15.432;2023-04-24T04:39:06;46.03;;;20.77;;
16115;SDS011;8162;47.104;15.432;2023-04-24T04:42:07;56.50;;;21.53;;
16115;SDS011;8162;47.104;15.432;2023-04-24T04:45:08;49.37;;;19.60;;
16115;SDS011;8162;47.104;15.432;2023-04-24T04:48:11;56.90;;;20.13;;
16115;SDS011;8162;47.104;15.432;2023-04-24T04:51:13;60.80;;;18.80;;
16115;SDS011;8162;47.104;15.432;2023-04-24T04:54:14;84.17;;;23.90;;
16115;SDS011;8162;47.104;15.432;2023-04-24T04:57:15;65.03;;;21.00;;
16115;SDS011;8162;47.104;15.432;2023-04-24T05:00:16;68.33;;;20.77;;
16115;SDS011;8162;47.104;15.432;2023-04-24T05:03:17;56.77;;;20.80;;
16115;SDS011;8162;47.104;15.432;2023-04-24T05:06:18;61.73;;;21.90;;
16115;SDS011;8162;47.104;15.432;2023-04-24T05:09:20;65.40;;;24.30;;
16115;SDS011;8162;47.104;15.432;2023-04-24T05:12:21;77.77;;;27.30;;
16115;SDS011;8162;47.104;15.432;2023-04-24T05:15:22;69.67;;;26.07;;
16115;SDS011;8162;47.104;15.432;2023-04-24T05:18:23;90.00;;;30.60;;
16115;SDS011;8162;47.104;15.432;2023-04-24T05:21:24;71.63;;;26.30;;
16115;SDS011;8162;47.104;15.432;2023-04-24T05:24:26;73.50;;;26.20;;
16115;SDS011;8162;47.104;15.432;2023-04-24T05:27:27;74.70;;;26.37;;
16115;SDS011;8162;47.104;15.432;2023-04-24T05:30:29;107.53;;;30.33;;
16115;SDS011;8162;47.104;15.432;2023-04-24T05:33:30;68.60;;;26.60;;
16115;SDS011;8162;47.104;15.432;2023-04-24T05:36:31;61.67;;;23.87;;
16115;SDS011;8162;47.104;15.432;2023-04-24T05:39:32;94.60;;;27.00;;
16115;SDS011;8162;47.104;15.432;2023-04-24T05:42:33;92.50;;;27.07;;
16115;SDS011;8162;47.104;15.432;2023-04-24T05:45:34;84.20;;;25.73;;
16115;SDS011;8162;47.104;15.432;2023-04-24T05:48:36;72.83;;;25.23;;
16115;SDS011;8162;47.104;15.432;2023-04-24T05:51:37;57.43;;;22.53;;
16115;SDS011;8162;47.104;15.432;2023-04-24T05:54:39;58.63;;;21.73;;
16115;SDS011;8162;47.104;15.432;2023-04-24T05:57:40;55.53;;;25.03;;
16115;SDS011;8162;47.104;15.432;2023-04-24T06:00:41;68.53;;;25.77;;
16115;SDS011;8162;47.104;15.432;2023-04-24T06:03:43;73.03;;;26.83;;
16115;SDS011;8162;47.104;15.432;2023-04-24T06:06:44;47.70;;;25.03;;
16115;SDS011;8162;47.104;15.432;2023-04-24T06:09:45;47.20;;;24.13;;
16115;SDS011;8162;47.104;15.432;2023-04-24T06:12:47;53.27;;;23.97;;
16115;SDS011;8162;47.104;15.432;2023-04-24T06:15:48;59.70;;;24.47;;
16115;SDS011;8162;47.104;15.432;2023-04-24T06:18:49;72.60;;;23.43;;
16115;SDS011;8162;47.104;15.432;2023-04-24T06:21:50;79.77;;;25.10;;
16115;SDS011;8162;47.104;15.432;2023-04-24T06:24:51;44.03;;;20.37;;
16115;SDS011;8162;47.104;15.432;2023-04-24T06:27:52;52.07;;;21.50;;
16115;SDS011;8162;47.104;15.432;2023-04-24T06:30:53;47.27;;;20.57;;
16115;SDS011;8162;47.104;15.432;2023-04-24T06:33:54;46.27;;;19.90;;
16115;SDS011;8162;47.104;15.432;2023-04-24T06:36:55;44.97;;;19.37;;
16115;SDS011;8162;47.104;15.432;2023-04-24T06:39:56;42.80;;;20.27;;
16115;SDS011;8162;47.104;15.432;2023-04-24T06:42:58;47.83;;;19.37;;
16115;SDS011;8162;47.104;15.432;2023-04-24T06:46:00;49.47;;;20.67;;
16115;SDS011;8162;47.104;15.432;2023-04-24T06:49:03;48.10;;;21.13;;
16115;SDS011;8162;47.104;15.432;2023-04-24T06:52:04;54.50;;;22.47;;
16115;SDS011;8162;47.104;15.432;2023-04-24T06:55:05;70.67;;;22.70;;
16115;SDS011;8162;47.104;15.432;2023-04-24T06:58:06;99.97;;;21.87;;
16115;SDS011;8162;47.104;15.432;2023-04-24T07:01:08;77.63;;;20.53;;
16115;SDS011;8162;47.104;15.432;2023-04-24T07:04:09;67.43;;;19.90;;
16115;SDS011;8162;47.104;15.432;2023-04-24T07:07:11;79.57;;;19.97;;
16115;SDS011;8162;47.104;15.432;2023-04-24T07:10:14;95.87;;;23.20;;
16115;SDS011;8162;47.104;15.432;2023-04-24T07:13:15;63.57;;;20.13;;
16115;SDS011;8162;47.104;15.432;2023-04-24T07:16:16;68.70;;;18.07;;
16115;SDS011;8162;47.104;15.432;2023-04-24T07:19:17;82.83;;;21.10;;
16115;SDS011;8162;47.104;15.432;2023-04-24T07:22:18;64.00;;;18.10;;
16115;SDS011;8162;47.104;15.432;2023-04-24T07:25:19;78.03;;;20.83;;
16115;SDS011;8162;47.104;15.432;2023-04-24T07:28:20;74.60;;;22.23;;
16115;SDS011;8162;47.104;15.432;2023-04-24T07:31:21;94.03;;;23.47;;
16115;SDS011;8162;47.104;15.432;2023-04-24T07:34:22;114.50;;;26.53;;
16115;SDS011;8162;47.104;15.432;2023-04-24T07:37:23;91.00;;;26.27;;
16115;SDS011;8162;47.104;15.432;2023-04-24T07:40:24;81.23;;;25.13;;
16115;SDS011;8162;47.104;15.432;2023-04-24T07:43:25;117.13;;;29.47;;
16115;SDS011;8162;47.104;15.432;2023-04-24T07:46:26;91.57;;;25.90;;
16115;SDS011;8162;47.104;15.432;2023-04-24T07:49:29;83.40;;;28.37;;
16115;SDS011;8162;47.104;15.432;2023-04-24T07:52:31;47.97;;;22.67;;
16115;SDS011;8162;47.104;15.432;2023-04-24T07:55:32;93.23;;;28.53;;
16115;SDS011;8162;47.104;15.432;2023-04-24T07:58:33;96.07;;;29.00;;
16115;SDS011;8162;47.104;15.432;2023-04-24T08:01:34;78.77;;;27.73;;
16115;SDS011;8162;47.104;15.432;2023-04-24T08:04:35;32.23;;;21.93;;
16115;SDS011;8162;47.104;15.432;2023-04-24T08:07:36;88.27;;;27.57;;
16115;SDS011;8162;47.104;15.432;2023-04-24T08:10:37;56.63;;;25.00;;
16115;SDS011;8162;47.104;15.432;2023-04-24T08:13:38;92.03;;;27.13;;
16115;SDS011;8162;47.104;15.432;2023-04-24T08:16:40;60.97;;;24.97;;
16115;SDS011;8162;47.104;15.432;2023-04-24T08:19:41;124.43;;;32.63;;
16115;SDS011;8162;47.104;15.432;2023-04-24T08:22:48;87.80;;;29.50;;
16115;SDS011;8162;47.104;15.432;2023-04-24T08:25:49;94.50;;;28.80;;
16115;SDS011;8162;47.104;15.432;2023-04-24T08:28:50;68.43;;;29.03;;
16115;SDS011;8162;47.104;15.432;2023-04-24T08:31:51;144.77;;;36.87;;
16115;SDS011;8162;47.104;15.432;2023-04-24T08:34:54;85.87;;;29.30;;
16115;SDS011;8162;47.104;15.432;2023-04-24T08:37:56;77.07;;;28.77;;
16115;SDS011;8162;47.104;15.432;2023-04-24T08:40:58;71.10;;;28.53;;
16115;SDS011;8162;47.104;15.432;2023-04-24T08:43:59;62.47;;;27.37;;
16115;SDS011;8162;47.104;15.432;2023-04-24T08:47:02;36.80;;;21.83;;
16115;SDS011;8162;47.104;15.432;2023-04-24T08:50:03;43.00;;;23.37;;
16115;SDS011;8162;47.104;15.432;2023-04-24T08:53:05;64.77;;;28.10;;
16115;SDS011;8162;47.104;15.432;2023-04-24T08:56:08;40.13;;;23.10;;
16115;SDS011;8162;47.104;15.432;2023-04-24T08:59:09;88.60;;;28.60;;
16115;SDS011;8162;47.104;15.432;2023-04-24T09:02:11;73.83;;;26.27;;
16115;SDS011;8162;47.104;15.432;2023-04-24T09:05:12;74.03;;;28.07;;
16115;SDS011;8162;47.104;15.432;2023-04-24T09:08:14;71.13;;;28.77;;
16115;SDS011;8162;47.104;15.432;2023-04-24T09:11:16;56.13;;;23.10;;
16115;SDS011;8162;47.104;15.432;2023-04-24T09:14:17;41.43;;;18.87;;
16115;SDS011;8162;47.104;15.432;2023-04-24T09:17:20;30.50;;;16.83;;
16115;SDS011;8162;47.104;15.432;2023-04-24T09:20:22;39.93;;;17.50;;
16115;SDS011;8162;47.104;15.432;2023-04-24T09:23:25;27.77;;;12.63;;
16115;SDS011;8162;47.104;15.432;2023-04-24T09:26:28;18.23;;;10.77;;
16115;SDS011;8162;47.104;15.432;2023-04-24T09:29:31;19.33;;;11.07;;
16115;SDS011;8162;47.104;15.432;2023-04-24T09:32:33;32.73;;;10.83;;
16115;SDS011;8162;47.104;15.432;2023-04-24T09:35:34;25.80;;;10.30;;
16115;SDS011;8162;47.104;15.432;2023-04-24T09:38:36;28.43;;;10.43;;
16115;SDS011;8162;47.104;15.432;2023-04-24T09:41:47;18.00;;;7.87;;
16115;SDS011;8162;47.104;15.432;2023-04-24T09:44:49;26.63;;;10.37;;
16115;SDS011;8162;47.104;15.432;2023-04-24T09:47:52;22.27;;;7.93;;
16115;SDS011;8162;47.104;15.432;2023-04-24T09:50:56;13.67;;;6.13;;
16115;SDS011;8162;47.104;15.432;2023-04-24T09:53:57;12.33;;;5.83;;
16115;SDS011;8162;47.104;15.432;2023-04-24T09:56:58;10.03;;;6.37;;
16115;SDS011;8162;47.104;15.432;2023-04-24T10:00:00;20.40;;;9.63;;
16115;SDS011;8162;47.104;15.432;2023-04-24T10:03:04;21.43;;;9.93;;
16115;SDS011;8162;47.104;15.432;2023-04-24T10:06:05;29.17;;;10.87;;
16115;SDS011;8162;47.104;15.432;2023-04-24T10:09:08;17.90;;;8.47;;
16115;SDS011;8162;47.104;15.432;2023-04-24T10:12:11;13.00;;;8.00;;
16115;SDS011;8162;47.104;15.432;2023-04-24T10:15:13;8.17;;;5.50;;
16115;SDS011;8162;47.104;15.432;2023-04-24T10:18:16;7.47;;;5.17;;
16115;SDS011;8162;47.104;15.432;2023-04-24T10:21:17;8.97;;;5.63;;
16115;SDS011;8162;47.104;15.432;2023-04-24T10:24:18;6.90;;;4.73;;
16115;SDS011;8162;47.104;15.432;2023-04-24T10:27:23;6.70;;;4.53;;
16115;SDS011;8162;47.104;15.432;2023-04-24T10:30:25;9.17;;;4.57;;
16115;SDS011;8162;47.104;15.432;2023-04-24T10:33:27;6.43;;;4.83;;
16115;SDS011;8162;47.104;15.432;2023-04-24T10:36:28;9.83;;;4.40;;
16115;SDS011;8162;47.104;15.432;2023-04-24T10:39:32;4.80;;;3.97;;
16115;SDS011;8162;47.104;15.432;2023-04-24T10:42:35;8.77;;;4.90;;
16115;SDS011;8162;47.104;15.432;2023-04-24T10:45:41;7.27;;;3.73;;
16115;SDS011;8162;47.104;15.432;2023-04-24T10:49:03;4.27;;;3.47;;
16115;SDS011;8162;47.104;15.432;2023-04-24T10:52:06;5.33;;;3.10;;
16115;SDS011;8162;47.104;15.432;2023-04-24T10:55:09;3.97;;;2.40;;
16115;SDS011;8162;47.104;15.432;2023-04-24T10:58:11;6.50;;;2.87;;
16115;SDS011;8162;47.104;15.432;2023-04-24T11:01:26;3.90;;;2.20;;
16115;SDS011;8162;47.104;15.432;2023-04-24T11:04:31;5.10;;;2.53;;
16115;SDS011;8162;47.104;15.432;2023-04-24T11:10:57;5.23;;;2.50;;
16115;SDS011;8162;47.104;15.432;2023-04-24T11:16:59;2.90;;;2.70;;
16115;SDS011;8162;47.104;15.432;2023-04-24T11:20:01;3.27;;;2.97;;
16115;SDS011;8162;47.104;15.432;2023-04-24T11:23:04;3.00;;;2.23;;
16115;SDS011;8162;47.104;15.432;2023-04-24T11:26:17;6.67;;;2.80;;
16115;SDS011;8162;47.104;15.432;2023-04-24T11:29:19;2.60;;;2.40;;
16115;SDS011;8162;47.104;15.432;2023-04-24T11:35:28;3.53;;;2.10;;
16115;SDS011;8162;47.104;15.432;2023-04-24T11:38:30;3.03;;;1.93;;
16115;SDS011;8162;47.104;15.432;2023-04-24T11:41:33;3.13;;;2.30;;
16115;SDS011;8162;47.104;15.432;2023-04-24T11:44:34;3.60;;;2.10;;
16115;SDS011;8162;47.104;15.432;2023-04-24T11:47:37;2.20;;;2.00;;
16115;SDS011;8162;47.104;15.432;2023-04-24T11:50:38;2.37;;;1.93;;
16115;SDS011;8162;47.104;15.432;2023-04-24T11:53:39;1.60;;;1.30;;
16115;SDS011;8162;47.104;15.432;2023-04-24T11:56:44;2.10;;;1.53;;
16115;SDS011;8162;47.104;15.432;2023-04-24T11:59:45;1.93;;;1.67;;
16115;SDS011;8162;47.104;15.432;2023-04-24T12:02:47;1.50;;;1.40;;
16115;SDS011;8162;47.104;15.432;2023-04-24T12:05:48;2.00;;;1.27;;
16115;SDS011;8162;47.104;15.432;2023-04-24T12:08:49;1.87;;;1.43;;
16115;SDS011;8162;47.104;15.432;2023-04-24T12:11:55;1.73;;;1.33;;
16115;SDS011;8162;47.104;15.432;2023-04-24T12:15:01;1.77;;;1.27;;
16115;SDS011;8162;47.104;15.432;2023-04-24T12:18:03;2.33;;;1.30;;
16115;SDS011;8162;47.104;15.432;2023-04-24T12:24:17;2.67;;;0.90;;
16115;SDS011;8162;47.104;15.432;2023-04-24T12:27:19;2.07;;;0.87;;
16115;SDS011;8162;47.104;15.432;2023-04-24T12:30:21;0.90;;;0.80;;
16115;SDS011;8162;47.104;15.432;2023-04-24T12:33:22;1.67;;;1.30;;
16115;SDS011;8162;47.104;15.432;2023-04-24T12:36:23;2.03;;;1.20;;
16115;SDS011;8162;47.104;15.432;2023-04-24T12:39:24;1.53;;;1.13;;
16115;SDS011;8162;47.104;15.432;2023-04-24T12:42:30;1.83;;;1.17;;
16115;SDS011;8162;47.104;15.432;2023-04-24T12:45:31;1.03;;;0.97;;
16115;SDS011;8162;47.104;15.432;2023-04-24T12:48:32;0.57;;;0.50;;
16115;SDS011;8162;47.104;15.432;2023-04-24T12:51:33;0.40;;;0.40;;
16115;SDS011;8162;47.104;15.432;2023-04-24T12:54:34;2.07;;;0.57;;
16115;SDS011;8162;47.104;15.432;2023-04-24T12:57:36;1.23;;;0.70;;
16115;SDS011;8162;47.104;15.432;2023-04-24T13:00:38;0.77;;;0.60;;
16115;SDS011;8162;47.104;15.432;2023-04-24T13:03:39;1.30;;;0.63;;
16115;SDS011;8162;47.104;15.432;2023-04-24T13:06:40;3.57;;;1.10;;
16115;SDS011;8162;47.104;15.432;2023-04-24T13:09:42;5.27;;;1.13;;
16115;SDS011;8162;47.104;15.432;2023-04-24T13:12:43;0.70;;;0.70;;
16115;SDS011;8162;47.104;15.432;2023-04-24T13:15:46;1.23;;;0.93;;
16115;SDS011;8162;47.104;15.432;2023-04-24T13:18:47;1.97;;;1.00;;
16115;SDS011;8162;47.104;15.432;2023-04-24T13:21:48;1.67;;;0.90;;
16115;SDS011;8162;47.104;15.432;2023-04-24T13:24:49;1.87;;;0.70;;
16115;SDS011;8162;47.104;15.432;2023-04-24T13:27:50;1.37;;;0.80;;
16115;SDS011;8162;47.104;15.432;2023-04-24T13:30:51;1.43;;;0.90;;
16115;SDS011;8162;47.104;15.432;2023-04-24T13:33:52;0.70;;;0.70;;
16115;SDS011;8162;47.104;15.432;2023-04-24T13:36:54;0.77;;;0.70;;
16115;SDS011;8162;47.104;15.432;2023-04-24T13:39:55;1.90;;;0.60;;
16115;SDS011;8162;47.104;15.432;2023-04-24T13:42:56;1.53;;;0.67;;
16115;SDS011;8162;47.104;15.432;2023-04-24T13:45:57;0.60;;;0.60;;
16115;SDS011;8162;47.104;15.432;2023-04-24T13:48:59;0.70;;;0.70;;
16115;SDS011;8162;47.104;15.432;2023-04-24T13:52:00;1.53;;;0.83;;
16115;SDS011;8162;47.104;15.432;2023-04-24T13:55:01;2.03;;;0.77;;
16115;SDS011;8162;47.104;15.432;2023-04-24T13:58:02;1.67;;;0.80;;
16115;SDS011;8162;47.104;15.432;2023-04-24T14:01:03;1.73;;;1.10;;
16115;SDS011;8162;47.104;15.432;2023-04-24T14:04:05;2.73;;;0.90;;
16115;SDS011;8162;47.104;15.432;2023-04-24T14:07:06;2.43;;;0.60;;
16115;SDS011;8162;47.104;15.432;2023-04-24T14:10:08;0.70;;;0.70;;
16115;SDS011;8162;47.104;15.432;2023-04-24T14:13:09;2.13;;;0.70;;
16115;SDS011;8162;47.104;15.432;2023-04-24T14:16:10;1.67;;;1.10;;
16115;SDS011;8162;47.104;15.432;2023-04-24T14:19:11;1.60;;;1.00;;
16115;SDS011;8162;47.104;15.432;2023-04-24T14:22:12;1.50;;;1.00;;
16115;SDS011;8162;47.104;15.432;2023-04-24T14:25:13;1.93;;;1.00;;
16115;SDS011;8162;47.104;15.432;2023-04-24T14:28:15;1.10;;;1.10;;
16115;SDS011;8162;47.104;15.432;2023-04-24T14:31:16;1.20;;;1.00;;
16115;SDS011;8162;47.104;15.432;2023-04-24T14:34:17;2.17;;;1.07;;
16115;SDS011;8162;47.104;15.432;2023-04-24T14:37:19;1.13;;;0.80;;
16115;SDS011;8162;47.104;15.432;2023-04-24T14:40:20;2.00;;;0.93;;
16115;SDS011;8162;47.104;15.432;2023-04-24T14:43:21;1.10;;;1.00;;
16115;SDS011;8162;47.104;15.432;2023-04-24T14:46:22;3.07;;;1.20;;
16115;SDS011;8162;47.104;15.432;2023-04-24T14:49:24;3.47;;;1.00;;
16115;SDS011;8162;47.104;15.432;2023-04-24T14:52:25;2.20;;;1.00;;
16115;SDS011;8162;47.104;15.432;2023-04-24T14:55:26;1.07;;;0.93;;
16115;SDS011;8162;47.104;15.432;2023-04-24T14:58:27;1.80;;;1.07;;
16115;SDS011;8162;47.104;15.432;2023-04-24T15:01:28;1.43;;;1.00;;
16115;SDS011;8162;47.104;15.432;2023-04-24T15:04:29;1.43;;;1.17;;
16115;SDS011;8162;47.104;15.432;2023-04-24T15:07:31;1.30;;;1.10;;
16115;SDS011;8162;47.104;15.432;2023-04-24T15:10:32;3.53;;;1.70;;
16115;SDS011;8162;47.104;15.432;2023-04-24T15:13:34;3.13;;;1.10;;
16115;SDS011;8162;47.104;15.432;2023-04-24T15:16:35;1.47;;;1.37;;
16115;SDS011;8162;47.104;15.432;2023-04-24T15:19:36;1.50;;;1.30;;
16115;SDS011;8162;47.104;15.432;2023-04-24T15:22:37;1.60;;;1.40;;
16115;SDS011;8162;47.104;15.432;2023-04-24T15:25:38;4.20;;;1.23;;
16115;SDS011;8162;47.104;15.432;2023-04-24T15:28:39;4.20;;;1.90;;
16115;SDS011;8162;47.104;15.432;2023-04-24T15:31:40;1.63;;;1.43;;
16115;SDS011;8162;47.104;15.432;2023-04-24T15:34:41;4.07;;;1.50;;
16115;SDS011;8162;47.104;15.432;2023-04-24T15:37:42;1.87;;;1.47;;
16115;SDS011;8162;47.104;15.432;2023-04-24T15:40:43;6.10;;;2.00;;
16115;SDS011;8162;47.104;15.432;2023-04-24T15:43:44;1.70;;;1.60;;
16115;SDS011;8162;47.104;15.432;2023-04-24T15:46:46;2.10;;;1.17;;
16115;SDS011;8162;47.104;15.432;2023-04-24T15:49:47;0.70;;;0.70;;
16115;SDS011;8162;47.104;15.432;2023-04-24T15:52:48;0.67;;;0.67;;
16115;SDS011;8162;47.104;15.432;2023-04-24T15:55:52;2.77;;;0.90;;
16115;SDS011;8162;47.104;15.432;2023-04-24T15:58:56;1.33;;;1.00;;
16115;SDS011;8162;47.104;15.432;2023-04-24T16:01:57;1.10;;;1.00;;
16115;SDS011;8162;47.104;15.432;2023-04-24T16:04:59;1.30;;;1.20;;
16115;SDS011;8162;47.104;15.432;2023-04-24T16:08:00;1.57;;;1.00;;
16115;SDS011;8162;47.104;15.432;2023-04-24T16:11:01;1.67;;;1.20;;
16115;SDS011;8162;47.104;15.432;2023-04-24T16:14:02;2.20;;;1.10;;
16115;SDS011;8162;47.104;15.432;2023-04-24T16:17:03;4.03;;;1.30;;
16115;SDS011;8162;47.104;15.432;2023-04-24T16:20:05;1.50;;;1.20;;
16115;SDS011;8162;47.104;15.432;2023-04-24T16:23:06;1.20;;;1.10;;
16115;SDS011;8162;47.104;15.432;2023-04-24T16:26:07;5.17;;;1.20;;
16115;SDS011;8162;47.104;15.432;2023-04-24T16:29:08;1.27;;;0.80;;
16115;SDS011;8162;47.104;15.432;2023-04-24T16:32:09;2.50;;;1.40;;
16115;SDS011;8162;47.104;15.432;2023-04-24T16:35:10;2.33;;;1.37;;
16115;SDS011;8162;47.104;15.432;2023-04-24T16:38:11;3.37;;;2.20;;
16115;SDS011;8162;47.104;15.432;2023-04-24T16:41:12;2.90;;;2.07;;
16115;SDS011;8162;47.104;15.432;2023-04-24T16:44:13;2.63;;;1.80;;
16115;SDS011;8162;47.104;15.432;2023-04-24T16:47:14;2.53;;;1.73;;
16115;SDS011;8162;47.104;15.432;2023-04-24T16:50:16;2.37;;;1.83;;
16115;SDS011;8162;47.104;15.432;2023-04-24T16:53:17;5.73;;;3.50;;
16115;SDS011;8162;47.104;15.432;2023-04-24T16:56:18;5.47;;;2.90;;
16115;SDS011;8162;47.104;15.432;2023-04-24T16:59:19;5.07;;;2.27;;
16115;SDS011;8162;47.104;15.432;2023-04-24T17:02:20;4.53;;;2.50;;
16115;SDS011;8162;47.104;15.432;2023-04-24T17:05:21;6.43;;;3.23;;
16115;SDS011;8162;47.104;15.432;2023-04-24T17:08:23;4.77;;;2.57;;
16115;SDS011;8162;47.104;15.432;2023-04-24T17:11:25;3.00;;;2.57;;
16115;SDS011;8162;47.104;15.432;2023-04-24T17:14:27;4.20;;;3.80;;
16115;SDS011;8162;47.104;15.432;2023-04-24T17:17:28;4.50;;;2.77;;
16115;SDS011;8162;47.104;15.432;2023-04-24T17:20:29;9.77;;;4.47;;
16115;SDS011;8162;47.104;15.432;2023-04-24T17:23:30;5.80;;;5.20;;
16115;SDS011;8162;47.104;15.432;2023-04-24T17:26:31;6.20;;;3.90;;
16115;SDS011;8162;47.104;15.432;2023-04-24T17:29:33;4.43;;;3.53;;
16115;SDS011;8162;47.104;15.432;2023-04-24T17:32:34;4.83;;;3.37;;
16115;SDS011;8162;47.104;15.432;2023-04-24T17:35:35;2.73;;;2.37;;
16115;SDS011;8162;47.104;15.432;2023-04-24T17:38:36;4.93;;;3.40;;
16115;SDS011;8162;47.104;15.432;2023-04-24T17:41:39;4.50;;;3.37;;
16115;SDS011;8162;47.104;15.432;2023-04-24T17:44:41;3.60;;;2.97;;
16115;SDS011;8162;47.104;15.432;2023-04-24T17:47:42;3.33;;;2.93;;
16115;SDS011;8162;47.104;15.432;2023-04-24T17:50:45;6.13;;;2.90;;
16115;SDS011;8162;47.104;15.432;2023-04-24T17:53:46;5.17;;;3.60;;
16115;SDS011;8162;47.104;15.432;2023-04-24T17:56:47;3.67;;;3.10;;
16115;SDS011;8162;47.104;15.432;2023-04-24T17:59:48;3.77;;;3.00;;
16115;SDS011;8162;47.104;15.432;2023-04-24T18:02:50;5.30;;;3.47;;
16115;SDS011;8162;47.104;15.432;2023-04-24T18:05:53;3.10;;;2.80;;
16115;SDS011;8162;47.104;15.432;2023-04-24T18:08:54;7.63;;;3.50;;